createdAt,value
2022-12-26T00:00:31.697Z,15.20
2022-12-26T00:01:35.357Z,10.23
2022-12-26T00:02:36.882Z,12.77
2022-12-26T00:03:38.726Z,12.32
2022-12-26T00:04:50.269Z,15.73
2022-12-26T00:05:53.994Z,14.43
2022-12-26T00:06:55.440Z,12.75
2022-12-26T00:07:56.830Z,12.48
2022-12-26T00:08:59.195Z,11.60
2022-12-26T00:10:00.637Z,17.52
2022-12-26T00:11:02.062Z,19.25
2022-12-26T00:12:03.911Z,12.88
2022-12-26T00:13:39.581Z,12.90
2022-12-26T00:14:26.751Z,13.93
2022-12-26T00:15:28.272Z,13.80
2022-12-26T00:16:29.854Z,12.27
2022-12-26T00:17:31.369Z,12.70
2022-12-26T00:18:32.794Z,11.05
2022-12-26T00:19:34.230Z,12.85
2022-12-26T00:20:35.756Z,11.60
2022-12-26T00:21:37.718Z,13.82
2022-12-26T00:22:39.093Z,11.93
2022-12-26T00:23:41.385Z,14.18
2022-12-26T00:24:42.821Z,13.65
2022-12-26T00:25:44.265Z,13.65
2022-12-26T00:26:45.709Z,10.70
2022-12-26T00:27:47.099Z,13.68
2022-12-26T00:28:48.908Z,11.15
2022-12-26T00:29:50.418Z,12.85
2022-12-26T00:30:51.840Z,12.52
2022-12-26T00:31:53.478Z,11.32
2022-12-26T00:32:55.318Z,12.00
2022-12-26T00:33:56.770Z,11.02
2022-12-26T00:34:58.189Z,12.27
2022-12-26T00:36:13.961Z,11.82
2022-12-26T00:37:15.372Z,11.70
2022-12-26T00:38:16.776Z,13.45
2022-12-26T00:39:18.201Z,13.27
2022-12-26T00:40:19.610Z,12.25
2022-12-26T00:41:22.092Z,10.30
2022-12-26T00:42:23.752Z,12.73
2022-12-26T00:43:25.214Z,11.23
2022-12-26T00:44:26.681Z,11.82
2022-12-26T00:45:28.075Z,13.55
2022-12-26T00:46:29.680Z,11.57
2022-12-26T00:47:31.185Z,13.07
2022-12-26T00:48:32.921Z,12.63
2022-12-26T00:50:12.607Z,13.05
2022-12-26T00:50:55.999Z,11.48
2022-12-26T00:51:57.423Z,12.82
2022-12-26T00:52:58.900Z,13.95
2022-12-26T00:54:00.357Z,12.65
2022-12-26T00:55:01.832Z,15.00
2022-12-26T00:56:03.983Z,14.88
2022-12-26T00:57:05.425Z,14.27
2022-12-26T00:58:06.838Z,17.27
2022-12-26T00:59:08.285Z,14.18
2022-12-26T01:00:10.234Z,13.90
2022-12-26T01:01:22.350Z,14.60
2022-12-26T01:02:39.443Z,12.80
2022-12-26T01:03:41.473Z,13.15
2022-12-26T01:04:42.909Z,12.50
2022-12-26T01:05:46.949Z,11.55
2022-12-26T01:06:48.415Z,12.70
2022-12-26T01:08:20.057Z,12.88
2022-12-26T01:09:13.298Z,13.20
2022-12-26T01:10:14.807Z,14.00
2022-12-26T01:11:37.191Z,12.57
2022-12-26T01:12:39.318Z,14.23
2022-12-26T01:13:42.016Z,13.15
2022-12-26T01:14:43.466Z,13.40
2022-12-26T01:15:52.395Z,12.68
2022-12-26T01:16:53.913Z,14.00
2022-12-26T01:17:55.366Z,13.43
2022-12-26T01:18:56.811Z,10.93
2022-12-26T01:19:58.752Z,14.05
2022-12-26T01:21:07.357Z,12.48
2022-12-26T01:22:08.865Z,10.68
2022-12-26T01:23:10.397Z,11.07
2022-12-26T01:24:12.907Z,13.20
2022-12-26T01:25:14.339Z,12.55
2022-12-26T01:26:20.312Z,14.20
2022-12-26T01:27:23.576Z,12.50
2022-12-26T01:28:25.019Z,13.05
2022-12-26T01:29:26.422Z,15.13
2022-12-26T01:30:27.873Z,13.82
2022-12-26T01:31:29.399Z,12.40
2022-12-26T01:32:30.815Z,13.85
2022-12-26T01:33:33.053Z,13.70
2022-12-26T01:34:34.468Z,15.02
2022-12-26T01:35:35.942Z,11.15
2022-12-26T01:36:37.410Z,12.13
2022-12-26T01:37:38.907Z,11.98
2022-12-26T01:38:40.312Z,15.57
2022-12-26T01:40:44.324Z,11.63
2022-12-26T01:41:46.043Z,14.55
2022-12-26T01:42:47.545Z,10.90
2022-12-26T01:43:49.010Z,9.70
2022-12-26T01:44:59.502Z,12.50
2022-12-26T01:46:00.965Z,10.57
2022-12-26T01:47:02.427Z,14.30
2022-12-26T01:48:15.609Z,11.07
2022-12-26T01:49:32.457Z,9.00
2022-12-26T01:50:52.205Z,10.45
2022-12-26T01:51:59.489Z,10.43
2022-12-26T01:53:12.530Z,13.05
2022-12-26T01:54:40.248Z,10.38
2022-12-26T01:55:37.360Z,12.02
2022-12-26T01:56:41.881Z,12.05
2022-12-26T01:57:47.455Z,10.70
2022-12-26T01:59:03.395Z,13.02
2022-12-26T02:00:06.481Z,12.48
2022-12-26T02:01:09.734Z,12.10
2022-12-26T02:02:11.685Z,12.00
2022-12-26T02:03:32.117Z,13.45
2022-12-26T02:04:59.200Z,11.40
2022-12-26T02:06:01.795Z,11.35
2022-12-26T02:07:04.976Z,12.73
2022-12-26T02:08:11.616Z,12.30
2022-12-26T02:09:13.348Z,10.00
2022-12-26T02:10:21.885Z,11.70
2022-12-26T02:11:33.159Z,10.40
2022-12-26T02:12:38.826Z,13.65
2022-12-26T02:13:41.821Z,9.52
2022-12-26T02:14:43.703Z,11.75
2022-12-26T02:15:46.093Z,10.82
2022-12-26T02:16:47.917Z,13.15
2022-12-26T02:17:49.552Z,13.88
2022-12-26T02:18:50.975Z,13.15
2022-12-26T02:20:10.053Z,11.05
2022-12-26T02:21:19.015Z,9.38
2022-12-26T02:22:28.535Z,11.82
2022-12-26T02:23:54.074Z,10.38
2022-12-26T02:25:07.657Z,10.65
2022-12-26T02:26:27.712Z,10.68
2022-12-26T02:28:57.119Z,8.63
2022-12-26T02:30:13.652Z,9.25
2022-12-26T02:31:24.093Z,12.93
2022-12-26T02:32:46.439Z,10.05
2022-12-26T02:33:50.917Z,10.23
2022-12-26T02:34:52.302Z,11.05
2022-12-26T02:36:20.075Z,9.73
2022-12-26T02:37:47.717Z,9.18
2022-12-26T02:39:42.439Z,9.23
2022-12-26T02:40:48.241Z,10.60
2022-12-26T02:42:20.745Z,10.65
2022-12-26T02:43:30.159Z,9.93
2022-12-26T02:45:07.518Z,10.07
2022-12-26T02:46:50.982Z,8.77
2022-12-26T02:47:57.218Z,14.30
2022-12-26T02:49:20.796Z,11.48
2022-12-26T02:50:52.042Z,9.35
2022-12-26T02:52:25.780Z,8.85
2022-12-26T02:54:10.509Z,9.23
2022-12-26T02:55:38.314Z,9.73
2022-12-26T02:57:05.317Z,12.23
2022-12-26T02:58:32.151Z,9.55
2022-12-26T03:00:11.481Z,8.95
2022-12-26T03:01:47.245Z,8.25
2022-12-26T03:03:29.165Z,10.55
2022-12-26T03:04:52.745Z,9.48
2022-12-26T03:06:27.605Z,10.50
2022-12-26T03:07:53.366Z,11.32
2022-12-26T03:09:24.317Z,10.20
2022-12-26T03:10:50.309Z,9.73
2022-12-26T03:13:25.667Z,12.57
2022-12-26T03:14:41.999Z,11.50
2022-12-26T03:16:16.354Z,10.32
2022-12-26T03:17:35.997Z,10.10
2022-12-26T03:18:58.151Z,9.52
2022-12-26T03:20:10.604Z,8.82
2022-12-26T03:21:14.405Z,10.68
2022-12-26T03:22:30.566Z,11.55
2022-12-26T03:23:33.022Z,9.07
2022-12-26T03:24:54.667Z,12.13
2022-12-26T03:26:17.696Z,8.45
2022-12-26T03:27:19.107Z,9.38
2022-12-26T03:28:21.921Z,11.00
2022-12-26T03:29:42.901Z,9.52
2022-12-26T03:30:50.360Z,11.48
2022-12-26T03:31:52.176Z,12.80
2022-12-26T03:32:57.030Z,9.10
2022-12-26T03:34:18.503Z,10.02
2022-12-26T03:35:20.521Z,10.07
2022-12-26T03:37:58.314Z,9.27
2022-12-26T03:39:16.905Z,8.85
2022-12-26T03:41:15.598Z,8.77
2022-12-26T03:42:59.002Z,10.07
2022-12-26T03:44:42.475Z,6.93
2022-12-26T03:46:27.818Z,12.50
2022-12-26T03:47:55.549Z,8.88
2022-12-26T03:49:19.850Z,8.70
2022-12-26T03:51:01.029Z,9.88
2022-12-26T03:52:28.308Z,8.05
2022-12-26T03:54:01.775Z,9.95
2022-12-26T03:55:34.519Z,9.15
2022-12-26T03:57:05.017Z,11.93
2022-12-26T03:58:27.887Z,15.68
2022-12-26T04:00:04.337Z,9.75
2022-12-26T04:01:29.677Z,9.85
2022-12-26T04:02:50.680Z,11.55
2022-12-26T04:04:13.561Z,11.20
2022-12-26T04:05:36.003Z,10.43
2022-12-26T04:07:08.013Z,10.38
2022-12-26T04:10:07.503Z,9.25
2022-12-26T04:11:34.991Z,9.73
2022-12-26T04:12:57.260Z,9.82
2022-12-26T04:14:27.763Z,10.05
2022-12-26T04:15:59.362Z,10.45
2022-12-26T04:17:39.170Z,12.77
2022-12-26T04:19:18.205Z,8.45
2022-12-26T04:20:19.672Z,9.68
2022-12-26T04:21:39.457Z,12.50
2022-12-26T04:23:05.948Z,9.30
2022-12-26T04:24:32.753Z,12.27
2022-12-26T04:26:05.132Z,9.32
2022-12-26T04:27:32.068Z,11.55
2022-12-26T04:28:52.361Z,11.13
2022-12-26T04:30:12.769Z,8.73
2022-12-26T04:31:54.583Z,9.38
2022-12-26T04:33:25.457Z,9.05
2022-12-26T04:34:58.986Z,8.75
2022-12-26T04:36:28.704Z,11.20
2022-12-26T04:37:51.193Z,10.73
2022-12-26T04:39:15.521Z,8.43
2022-12-26T04:40:44.996Z,11.80
2022-12-26T04:42:07.360Z,9.68
2022-12-26T04:43:49.478Z,9.55
2022-12-26T04:44:50.862Z,14.57
2022-12-26T04:45:54.531Z,10.60
2022-12-26T04:46:56.973Z,8.25
2022-12-26T04:48:17.195Z,12.05
2022-12-26T04:49:37.482Z,11.40
2022-12-26T04:50:53.098Z,10.52
2022-12-26T04:51:57.189Z,8.75
2022-12-26T04:52:58.876Z,11.32
2022-12-26T04:54:00.609Z,10.68
2022-12-26T04:55:02.032Z,12.90
2022-12-26T04:56:03.716Z,10.80
2022-12-26T04:57:06.424Z,9.80
2022-12-26T04:58:08.006Z,9.18
2022-12-26T04:59:09.961Z,11.63
2022-12-26T05:00:12.136Z,10.82
2022-12-26T05:01:32.393Z,10.32
2022-12-26T05:02:52.758Z,12.40
2022-12-26T05:04:12.827Z,10.60
2022-12-26T05:06:52.329Z,10.25
2022-12-26T05:08:12.552Z,13.02
2022-12-26T05:09:34.537Z,11.23
2022-12-26T05:10:35.980Z,10.13
2022-12-26T05:11:37.409Z,8.30
2022-12-26T05:12:38.851Z,9.20
2022-12-26T05:13:40.301Z,9.02
2022-12-26T05:14:41.754Z,11.45
2022-12-26T05:16:01.769Z,11.35
2022-12-26T05:18:45.792Z,7.85
2022-12-26T05:20:08.120Z,10.02
2022-12-26T05:21:32.648Z,9.40
2022-12-26T05:22:58.165Z,9.50
2022-12-26T05:24:18.492Z,11.02
2022-12-26T05:25:42.619Z,9.85
2022-12-26T05:27:03.073Z,9.95
2022-12-26T05:28:23.441Z,9.60
2022-12-26T05:30:28.434Z,8.60
2022-12-26T05:31:35.369Z,7.63
2022-12-26T05:32:56.316Z,8.68
2022-12-26T05:35:10.813Z,8.48
2022-12-26T05:36:13.797Z,6.40
2022-12-26T05:37:15.284Z,8.30
2022-12-26T05:38:16.719Z,9.23
2022-12-26T05:39:18.155Z,8.02
2022-12-26T05:40:19.559Z,10.75
2022-12-26T05:41:20.974Z,7.82
2022-12-26T05:42:22.367Z,8.50
2022-12-26T05:43:24.129Z,7.43
2022-12-26T05:44:25.584Z,8.30
2022-12-26T05:45:27.213Z,7.95
2022-12-26T05:46:28.798Z,7.88
2022-12-26T05:47:30.252Z,9.02
2022-12-26T05:48:31.782Z,7.10
2022-12-26T05:49:33.226Z,11.02
2022-12-26T05:50:34.670Z,8.57
2022-12-26T05:51:36.390Z,8.60
2022-12-26T05:52:38.129Z,8.32
2022-12-26T05:53:39.651Z,9.98
2022-12-26T05:54:41.075Z,6.85
2022-12-26T05:55:42.795Z,8.30
2022-12-26T05:56:49.088Z,9.02
2022-12-26T05:57:50.930Z,10.10
2022-12-26T05:58:57.162Z,8.65
2022-12-26T05:59:58.657Z,7.45
2022-12-26T06:01:06.046Z,9.35
2022-12-26T06:02:07.655Z,6.90
2022-12-26T06:03:09.404Z,8.88
2022-12-26T06:04:10.867Z,7.75
2022-12-26T06:05:12.400Z,7.05
2022-12-26T06:06:14.812Z,8.57
2022-12-26T06:07:16.202Z,7.07
2022-12-26T06:08:17.621Z,7.53
2022-12-26T06:09:19.047Z,7.82
2022-12-26T06:10:20.790Z,8.25
2022-12-26T06:11:24.627Z,7.35
2022-12-26T06:12:26.018Z,11.45
2022-12-26T06:13:30.092Z,9.38
2022-12-26T06:14:31.546Z,7.18
2022-12-26T06:15:33.063Z,8.63
2022-12-26T06:16:34.588Z,10.30
2022-12-26T06:17:36.083Z,8.63
2022-12-26T06:18:38.125Z,7.13
2022-12-26T06:20:48.247Z,7.57
2022-12-26T06:21:49.693Z,8.68
2022-12-26T06:22:51.102Z,9.50
2022-12-26T06:23:52.662Z,7.93
2022-12-26T06:24:54.094Z,7.60
2022-12-26T06:25:57.062Z,10.02
2022-12-26T06:26:58.543Z,8.68
2022-12-26T06:27:59.977Z,7.75
2022-12-26T06:29:01.451Z,7.97
2022-12-26T06:30:06.157Z,8.82
2022-12-26T06:31:14.619Z,7.85
2022-12-26T06:32:16.163Z,8.98
2022-12-26T06:33:18.333Z,9.25
2022-12-26T06:34:19.863Z,9.02
2022-12-26T06:35:21.436Z,7.68
2022-12-26T06:36:27.508Z,7.75
2022-12-26T06:37:28.979Z,8.90
2022-12-26T06:38:30.445Z,8.45
2022-12-26T06:39:31.993Z,9.00
2022-12-26T06:40:33.392Z,8.75
2022-12-26T06:41:34.863Z,9.07
2022-12-26T06:42:36.363Z,6.72
2022-12-26T06:43:38.114Z,7.45
2022-12-26T06:44:39.523Z,9.77
2022-12-26T06:45:40.929Z,8.43
2022-12-26T06:46:42.474Z,8.68
2022-12-26T06:47:44.919Z,9.45
2022-12-26T06:48:46.398Z,7.20
2022-12-26T06:49:47.797Z,9.75
2022-12-26T06:50:49.451Z,8.02
2022-12-26T06:51:50.881Z,8.43
2022-12-26T06:52:52.468Z,10.68
2022-12-26T06:53:54.495Z,9.50
2022-12-26T06:56:18.607Z,9.43
2022-12-26T06:57:24.805Z,7.65
2022-12-26T06:58:26.241Z,10.82
2022-12-26T06:59:27.645Z,8.35
2022-12-26T07:00:32.171Z,11.13
2022-12-26T07:01:35.057Z,8.38
2022-12-26T07:02:36.800Z,9.30
2022-12-26T07:03:41.941Z,7.43
2022-12-26T07:05:47.696Z,7.10
2022-12-26T07:06:49.170Z,6.47
2022-12-26T07:07:52.323Z,8.25
2022-12-26T07:09:05.519Z,5.90
2022-12-26T07:10:07.255Z,7.55
2022-12-26T07:11:20.215Z,7.30
2022-12-26T07:12:21.960Z,7.65
2022-12-26T07:13:23.395Z,7.97
2022-12-26T07:14:24.833Z,12.40
2022-12-26T07:15:26.246Z,6.45
2022-12-26T07:16:28.125Z,7.65
2022-12-26T07:17:29.567Z,8.48
2022-12-26T07:18:31.017Z,6.88
2022-12-26T07:19:32.444Z,6.28
2022-12-26T07:20:33.850Z,8.70
2022-12-26T07:21:40.370Z,8.02
2022-12-26T07:22:42.311Z,6.45
2022-12-26T07:23:43.763Z,8.30
2022-12-26T07:24:45.188Z,6.22
2022-12-26T07:25:49.748Z,7.18
2022-12-26T07:26:51.212Z,6.63
2022-12-26T07:27:54.012Z,6.85
2022-12-26T07:28:56.493Z,6.45
2022-12-26T07:29:57.901Z,8.63
2022-12-26T07:31:00.419Z,5.93
2022-12-26T07:32:01.955Z,7.70
2022-12-26T07:33:03.520Z,7.20
2022-12-26T07:34:05.087Z,8.25
2022-12-26T07:35:06.812Z,9.30
2022-12-26T07:36:08.465Z,6.63
2022-12-26T07:37:09.957Z,6.57
2022-12-26T07:38:12.260Z,7.97
2022-12-26T07:39:14.145Z,7.88
2022-12-26T07:40:15.633Z,7.60
2022-12-26T07:41:35.635Z,7.90
2022-12-26T07:43:38.426Z,7.18
2022-12-26T07:44:39.888Z,5.90
2022-12-26T07:45:45.643Z,10.93
2022-12-26T07:46:47.544Z,8.50
2022-12-26T07:47:53.592Z,8.40
2022-12-26T07:48:55.010Z,6.47
2022-12-26T07:49:56.446Z,6.43
2022-12-26T07:51:02.383Z,6.93
2022-12-26T07:52:04.317Z,8.82
2022-12-26T07:53:05.795Z,8.25
2022-12-26T07:54:11.411Z,6.57
2022-12-26T07:55:13.137Z,9.88
2022-12-26T07:56:14.561Z,7.45
2022-12-26T07:57:47.028Z,8.00
2022-12-26T07:58:37.350Z,10.02
2022-12-26T07:59:38.830Z,8.65
2022-12-26T08:00:40.257Z,7.53
2022-12-26T08:01:43.626Z,7.22
2022-12-26T08:02:48.484Z,6.43
2022-12-26T08:03:51.060Z,8.13
2022-12-26T08:04:52.569Z,7.57
2022-12-26T08:05:54.162Z,7.05
2022-12-26T08:06:55.549Z,7.50
2022-12-26T08:08:59.027Z,9.30
2022-12-26T08:10:00.463Z,7.72
2022-12-26T08:12:05.327Z,8.77
2022-12-26T08:13:06.957Z,8.30
2022-12-26T08:14:10.412Z,7.47
2022-12-26T08:15:12.749Z,7.60
2022-12-26T08:16:15.369Z,6.45
2022-12-26T08:17:18.746Z,6.80
2022-12-26T08:18:20.306Z,7.22
2022-12-26T08:19:21.804Z,7.82
2022-12-26T08:20:23.283Z,9.23
2022-12-26T08:21:24.687Z,9.77
2022-12-26T08:22:27.381Z,7.05
2022-12-26T08:23:28.795Z,5.63
2022-12-26T08:24:30.470Z,8.88
2022-12-26T08:25:31.911Z,7.75
2022-12-26T08:26:33.359Z,8.15
2022-12-26T08:27:34.912Z,6.07
2022-12-26T08:28:36.531Z,8.70
2022-12-26T08:29:37.946Z,8.10
2022-12-26T08:30:41.185Z,6.20
2022-12-26T08:31:42.857Z,10.18
2022-12-26T08:32:46.282Z,9.93
2022-12-26T08:33:59.975Z,7.15
2022-12-26T08:35:01.430Z,7.53
2022-12-26T08:36:08.742Z,9.15
2022-12-26T08:37:10.189Z,8.20
2022-12-26T08:38:11.694Z,7.70
2022-12-26T08:39:13.191Z,6.90
2022-12-26T08:40:15.652Z,7.45
2022-12-26T08:41:20.689Z,6.63
2022-12-26T08:42:22.457Z,9.27
2022-12-26T08:44:24.460Z,7.63
2022-12-26T08:44:46.223Z,7.22
2022-12-26T08:45:47.695Z,11.90
2022-12-26T08:46:49.138Z,8.63
2022-12-26T08:47:51.187Z,8.23
2022-12-26T08:49:53.872Z,7.10
2022-12-26T08:51:04.168Z,8.13
2022-12-26T08:52:05.819Z,9.73
2022-12-26T08:53:07.234Z,7.78
2022-12-26T08:54:08.688Z,8.93
2022-12-26T08:55:10.555Z,8.02
2022-12-26T08:56:16.192Z,10.85
2022-12-26T08:57:17.704Z,12.95
2022-12-26T08:58:19.874Z,10.00
2022-12-26T08:59:21.888Z,8.23
2022-12-26T09:01:30.194Z,11.65
2022-12-26T09:02:32.000Z,8.70
2022-12-26T09:03:33.594Z,9.25
2022-12-26T09:04:35.289Z,8.73
2022-12-26T09:05:36.750Z,10.25
2022-12-26T09:06:39.543Z,8.35
2022-12-26T09:07:41.075Z,8.82
2022-12-26T09:08:43.223Z,11.55
2022-12-26T09:09:45.113Z,9.85
2022-12-26T09:10:46.543Z,8.40
2022-12-26T09:11:47.996Z,7.60
2022-12-26T09:12:49.414Z,12.95
2022-12-26T09:13:50.860Z,10.23
2022-12-26T09:14:52.319Z,9.15
2022-12-26T09:15:53.715Z,9.45
2022-12-26T09:16:55.207Z,8.20
2022-12-26T09:17:56.788Z,8.18
2022-12-26T09:19:01.091Z,9.45
2022-12-26T09:20:02.609Z,10.35
2022-12-26T09:21:06.247Z,9.93
2022-12-26T09:22:28.278Z,9.25
2022-12-26T09:23:35.046Z,8.25
2022-12-26T09:24:36.510Z,8.68
2022-12-26T09:25:37.977Z,9.30
2022-12-26T09:26:39.592Z,12.10
2022-12-26T09:27:41.006Z,8.68
2022-12-26T09:28:42.433Z,8.15
2022-12-26T09:29:43.845Z,8.80
2022-12-26T09:30:45.428Z,12.57
2022-12-26T09:31:46.908Z,7.72
2022-12-26T09:32:49.082Z,7.82
2022-12-26T09:33:51.032Z,8.45
2022-12-26T09:34:52.461Z,9.25
2022-12-26T09:35:57.067Z,8.13
2022-12-26T09:37:03.253Z,10.88
2022-12-26T09:38:04.704Z,7.38
2022-12-26T09:39:07.128Z,6.70
2022-12-26T09:40:20.691Z,10.65
2022-12-26T09:41:40.537Z,10.50
2022-12-26T09:43:50.420Z,6.40
2022-12-26T09:45:06.306Z,9.00
2022-12-26T09:46:25.393Z,6.28
2022-12-26T09:47:34.410Z,7.22
2022-12-26T09:48:51.723Z,7.95
2022-12-26T09:49:56.175Z,9.30
2022-12-26T09:50:57.755Z,6.30
2022-12-26T09:52:05.815Z,10.20
2022-12-26T09:53:47.606Z,8.77
2022-12-26T09:55:02.632Z,5.60
2022-12-26T09:56:13.962Z,9.45
2022-12-26T09:57:42.950Z,8.43
2022-12-26T09:58:53.045Z,9.38
2022-12-26T10:00:01.330Z,7.07
2022-12-26T10:01:17.699Z,8.55
2022-12-26T10:02:22.673Z,7.72
2022-12-26T10:03:25.298Z,8.77
2022-12-26T10:04:30.408Z,7.80
2022-12-26T10:05:39.393Z,7.07
2022-12-26T10:06:47.836Z,7.05
2022-12-26T10:07:59.776Z,7.22
2022-12-26T10:09:14.658Z,8.60
2022-12-26T10:10:45.562Z,6.45
2022-12-26T10:11:46.913Z,8.75
2022-12-26T10:13:06.520Z,6.80
2022-12-26T10:14:45.381Z,8.65
2022-12-26T10:15:53.584Z,7.38
2022-12-26T10:17:22.136Z,6.97
2022-12-26T10:18:42.390Z,6.10
2022-12-26T10:20:18.698Z,8.13
2022-12-26T10:21:41.840Z,7.55
2022-12-26T10:22:59.453Z,6.60
2022-12-26T10:24:09.093Z,6.20
2022-12-26T10:25:24.056Z,6.88
2022-12-26T10:26:42.577Z,6.13
2022-12-26T10:27:48.401Z,7.88
2022-12-26T10:29:05.063Z,11.10
2022-12-26T10:30:14.242Z,6.65
2022-12-26T10:31:36.621Z,8.98
2022-12-26T10:32:44.627Z,7.70
2022-12-26T10:35:22.372Z,9.70
2022-12-26T10:36:37.025Z,8.65
2022-12-26T10:37:42.098Z,7.90
2022-12-26T10:38:47.936Z,5.80
2022-12-26T10:39:52.401Z,5.30
2022-12-26T10:40:56.800Z,6.32
2022-12-26T10:42:11.581Z,9.45
2022-12-26T10:43:25.110Z,5.55
2022-12-26T10:44:28.034Z,6.07
2022-12-26T10:45:43.296Z,5.72
2022-12-26T10:46:56.807Z,5.20
2022-12-26T10:47:58.299Z,5.82
2022-12-26T10:48:59.972Z,5.70
2022-12-26T10:50:02.218Z,6.82
2022-12-26T10:51:03.919Z,8.02
2022-12-26T10:52:05.472Z,5.95
2022-12-26T10:53:10.832Z,5.82
2022-12-26T10:54:17.800Z,4.97
2022-12-26T10:55:29.373Z,6.18
2022-12-26T10:56:35.705Z,4.65
2022-12-26T10:57:37.423Z,6.65
2022-12-26T10:58:40.956Z,7.78
2022-12-26T10:59:51.957Z,7.55
2022-12-26T11:00:53.460Z,7.50
2022-12-26T11:01:55.120Z,6.82
2022-12-26T11:03:07.550Z,5.50
2022-12-26T11:05:01.993Z,5.78
2022-12-26T11:06:09.518Z,7.78
2022-12-26T11:07:18.461Z,5.10
2022-12-26T11:08:26.701Z,6.72
2022-12-26T11:09:37.839Z,6.38
2022-12-26T11:10:39.309Z,6.57
2022-12-26T11:11:51.591Z,6.75
2022-12-26T11:12:59.951Z,6.15
2022-12-26T11:14:03.555Z,6.72
2022-12-26T11:15:18.287Z,6.28
2022-12-26T11:16:38.445Z,5.60
2022-12-26T11:17:45.203Z,5.90
2022-12-26T11:18:48.975Z,6.38
2022-12-26T11:20:09.367Z,4.78
2022-12-26T11:21:20.175Z,5.97
2022-12-26T11:22:27.973Z,6.88
2022-12-26T11:23:32.672Z,7.75
2022-12-26T11:24:34.122Z,6.13
2022-12-26T11:25:48.355Z,6.70
2022-12-26T11:26:49.795Z,6.00
2022-12-26T11:27:54.513Z,5.45
2022-12-26T11:29:12.364Z,6.15
2022-12-26T11:30:13.716Z,4.97
2022-12-26T11:31:28.029Z,5.97
2022-12-26T11:32:29.753Z,6.53
2022-12-26T11:33:43.202Z,6.88
2022-12-26T11:34:47.878Z,6.93
2022-12-26T11:36:01.530Z,6.55
2022-12-26T11:37:05.546Z,6.93
2022-12-26T11:38:39.207Z,8.15
2022-12-26T11:39:51.743Z,6.35
2022-12-26T11:41:13.162Z,8.63
2022-12-26T11:42:20.843Z,5.93
2022-12-26T11:43:25.500Z,8.57
2022-12-26T11:44:40.919Z,6.93
2022-12-26T11:45:45.018Z,7.68
2022-12-26T11:47:07.406Z,6.75
2022-12-26T11:48:26.289Z,6.63
2022-12-26T11:49:46.611Z,7.68
2022-12-26T11:50:48.345Z,6.13
2022-12-26T11:51:58.474Z,8.25
2022-12-26T11:53:00.864Z,6.15
2022-12-26T11:54:21.793Z,7.18
2022-12-26T11:55:25.396Z,6.10
2022-12-26T11:56:27.207Z,7.35
2022-12-26T11:57:31.598Z,8.20
2022-12-26T11:58:34.101Z,7.47
2022-12-26T11:59:35.567Z,6.25
2022-12-26T12:00:38.105Z,7.20
2022-12-26T12:01:39.741Z,7.28
2022-12-26T12:02:41.939Z,5.55
2022-12-26T12:03:50.313Z,11.20
2022-12-26T12:04:55.266Z,7.97
2022-12-26T12:06:14.893Z,7.97
2022-12-26T12:08:00.987Z,7.55
2022-12-26T12:09:33.385Z,8.02
2022-12-26T12:11:08.307Z,8.68
2022-12-26T12:12:22.941Z,6.50
2022-12-26T12:13:59.032Z,7.20
2022-12-26T12:15:00.620Z,7.57
2022-12-26T12:16:09.379Z,8.13
2022-12-26T12:17:23.665Z,6.80
2022-12-26T12:18:43.732Z,9.20
2022-12-26T12:21:29.243Z,7.85
2022-12-26T12:22:51.718Z,6.47
2022-12-26T12:24:15.167Z,6.70
2022-12-26T12:25:22.636Z,7.53
2022-12-26T12:26:33.944Z,7.55
2022-12-26T12:28:04.450Z,6.30
2022-12-26T12:29:08.831Z,7.55
2022-12-26T12:30:21.963Z,8.38
2022-12-26T12:31:35.520Z,8.82
2022-12-26T12:33:06.207Z,6.53
2022-12-26T12:34:22.176Z,7.78
2022-12-26T12:35:44.833Z,8.60
2022-12-26T12:36:58.859Z,6.85
2022-12-26T12:39:35.502Z,7.47
2022-12-26T12:40:46.041Z,7.65
2022-12-26T12:42:16.903Z,6.47
2022-12-26T12:43:31.129Z,6.78
2022-12-26T12:44:55.807Z,8.25
2022-12-26T12:46:31.961Z,7.28
2022-12-26T12:48:24.429Z,10.43
2022-12-26T12:49:50.684Z,9.35
2022-12-26T12:51:10.322Z,10.48
2022-12-26T12:52:17.818Z,7.43
2022-12-26T12:53:37.528Z,6.93
2022-12-26T12:54:44.979Z,9.63
2022-12-26T12:55:55.402Z,7.85
2022-12-26T12:57:12.995Z,7.63
2022-12-26T12:58:43.884Z,10.77
2022-12-26T13:00:30.342Z,10.65
2022-12-26T13:01:44.856Z,7.38
2022-12-26T13:03:10.350Z,9.18
2022-12-26T13:04:33.805Z,6.03
2022-12-26T13:05:53.847Z,8.82
2022-12-26T13:08:05.765Z,6.45
2022-12-26T13:09:28.071Z,6.43
2022-12-26T13:10:35.509Z,8.98
2022-12-26T13:11:53.582Z,8.85
2022-12-26T13:12:57.442Z,9.43
2022-12-26T13:14:13.029Z,9.05
2022-12-26T13:15:28.059Z,7.55
2022-12-26T13:16:36.010Z,7.38
2022-12-26T13:19:06.561Z,6.00
2022-12-26T13:20:26.614Z,7.30
2022-12-26T13:22:57.522Z,8.48
2022-12-26T13:24:23.991Z,6.97
2022-12-26T13:25:31.046Z,7.32
2022-12-26T13:26:37.738Z,6.57
2022-12-26T13:27:39.734Z,8.48
2022-12-26T13:29:49.787Z,6.95
2022-12-26T13:30:55.926Z,7.47
2022-12-26T13:32:01.818Z,6.88
2022-12-26T13:33:08.092Z,7.32
2022-12-26T13:34:16.154Z,16.40
2022-12-26T13:36:42.557Z,6.93
2022-12-26T13:37:57.069Z,8.52
2022-12-26T13:38:58.507Z,8.18
2022-12-26T13:40:03.118Z,7.95
2022-12-26T13:41:23.257Z,8.63
2022-12-26T13:42:51.777Z,6.32
2022-12-26T13:44:18.424Z,7.38
2022-12-26T13:45:35.196Z,8.07
2022-12-26T13:46:52.966Z,9.13
2022-12-26T13:47:54.411Z,7.35
2022-12-26T13:48:58.033Z,8.80
2022-12-26T13:50:37.937Z,7.88
2022-12-26T13:51:48.857Z,8.93
2022-12-26T13:52:50.555Z,7.68
2022-12-26T13:54:10.204Z,8.00
2022-12-26T13:55:14.345Z,11.73
2022-12-26T13:56:18.731Z,8.32
2022-12-26T13:57:42.429Z,9.68
2022-12-26T13:59:01.212Z,9.55
2022-12-26T14:00:14.898Z,7.90
2022-12-26T14:01:30.195Z,9.05
2022-12-26T14:03:16.723Z,8.38
2022-12-26T14:04:29.970Z,8.45
2022-12-26T14:05:52.192Z,8.43
2022-12-26T14:07:14.905Z,7.70
2022-12-26T14:08:33.045Z,10.52
2022-12-26T14:09:55.552Z,7.07
2022-12-26T14:11:26.484Z,7.70
2022-12-26T14:12:46.024Z,8.13
2022-12-26T14:14:14.657Z,9.38
2022-12-26T14:15:34.796Z,8.75
2022-12-26T14:16:55.184Z,7.72
2022-12-26T14:18:02.994Z,8.20
2022-12-26T14:19:29.323Z,9.52
2022-12-26T14:20:37.202Z,7.95
2022-12-26T14:22:04.847Z,8.80
2022-12-26T14:23:37.221Z,8.43
2022-12-26T14:25:14.300Z,8.18
2022-12-26T14:26:56.536Z,8.25
2022-12-26T14:28:19.245Z,13.57
2022-12-26T14:29:23.598Z,9.48
2022-12-26T14:30:55.196Z,9.93
2022-12-26T14:32:41.427Z,8.73
2022-12-26T14:33:51.904Z,9.90
2022-12-26T14:35:27.605Z,12.05
2022-12-26T14:36:52.667Z,8.55
2022-12-26T14:38:21.750Z,9.05
2022-12-26T14:39:52.988Z,9.20
2022-12-26T14:41:34.244Z,9.05
2022-12-26T14:43:12.802Z,11.27
2022-12-26T14:44:38.791Z,8.10
2022-12-26T14:45:53.032Z,10.52
2022-12-26T14:47:01.182Z,12.02
2022-12-26T14:48:17.623Z,9.57
2022-12-26T14:49:38.103Z,8.48
2022-12-26T14:50:47.060Z,9.52
2022-12-26T14:51:48.869Z,9.50
2022-12-26T14:52:50.449Z,10.93
2022-12-26T14:54:23.412Z,9.00
2022-12-26T14:55:45.453Z,9.45
2022-12-26T14:56:47.113Z,8.43
2022-12-26T14:57:48.944Z,10.52
2022-12-26T14:59:13.833Z,9.18
2022-12-26T15:00:20.950Z,13.38
2022-12-26T15:01:22.389Z,9.75
2022-12-26T15:02:23.903Z,9.48
2022-12-26T15:03:37.498Z,9.85
2022-12-26T15:04:41.925Z,9.40
2022-12-26T15:05:46.904Z,11.15
2022-12-26T15:07:22.114Z,13.30
2022-12-26T15:08:39.957Z,8.82
2022-12-26T15:10:29.036Z,8.90
2022-12-26T15:11:48.757Z,10.82
2022-12-26T15:13:29.938Z,10.57
2022-12-26T15:14:37.171Z,8.23
2022-12-26T15:15:47.529Z,8.45
2022-12-26T15:17:21.203Z,7.50
2022-12-26T15:18:33.548Z,10.88
2022-12-26T15:21:10.479Z,9.35
2022-12-26T15:22:19.603Z,10.45
2022-12-26T15:23:37.135Z,10.57
2022-12-26T15:25:18.088Z,9.38
2022-12-26T15:27:03.032Z,10.23
2022-12-26T15:28:32.022Z,7.80
2022-12-26T15:29:58.815Z,8.10
2022-12-26T15:31:32.582Z,11.40
2022-12-26T15:33:00.643Z,10.27
2022-12-26T15:34:10.979Z,8.65
2022-12-26T15:35:26.445Z,8.65
2022-12-26T15:36:36.925Z,9.23
2022-12-26T15:38:17.170Z,10.00
2022-12-26T15:39:33.507Z,8.10
2022-12-26T15:40:44.772Z,7.95
2022-12-26T15:41:50.620Z,8.90
2022-12-26T15:43:14.311Z,7.82
2022-12-26T15:44:24.505Z,7.55
2022-12-26T15:45:29.782Z,10.60
2022-12-26T15:46:35.824Z,8.52
2022-12-26T15:48:11.209Z,9.30
2022-12-26T15:49:40.121Z,7.45
2022-12-26T15:50:54.421Z,7.80
2022-12-26T15:52:09.161Z,9.38
2022-12-26T15:53:51.675Z,7.47
2022-12-26T15:55:33.390Z,6.55
2022-12-26T15:57:10.213Z,8.15
2022-12-26T15:58:49.432Z,10.65
2022-12-26T16:00:10.343Z,8.35
2022-12-26T16:01:12.550Z,9.43
2022-12-26T16:02:44.551Z,9.13
2022-12-26T16:05:04.217Z,7.00
2022-12-26T16:06:38.119Z,6.18
2022-12-26T16:07:57.485Z,6.38
2022-12-26T16:09:29.491Z,6.15
2022-12-26T16:10:34.276Z,10.23